Time;durP1;ratioP1;P1;durP2;ratioP2;P2;SDS_P1;SDS_P2;PMS_P1;PMS_P2;Temp;Humidity;BMP_temperature;BMP_pressure;BME280_temperature;BME280_humidity;BME280_pressure;Samples;Min_cycle;Max_cycle;Signal;HPM_P1;HPM_P2
2022/05/20 00:02:02;;;;;;;19.73;15.85;;;17.60;95.30;;;;;;4977167;28;20124;-80
2022/05/20 00:04:27;;;;;;;10.23;9.18;;;17.50;95.70;;;;;;4982043;28;20633;-80
2022/05/20 00:06:53;;;;;;;30.17;24.08;;;17.40;95.70;;;;;;4986126;28;20037;-80
2022/05/20 00:09:18;;;;;;;27.52;22.05;;;17.20;95.20;;;;;;4986310;28;20054;-80
2022/05/20 00:11:44;;;;;;;27.60;22.52;;;17.20;97.00;;;;;;4980983;28;20037;-80
2022/05/20 00:14:09;;;;;;;25.60;20.42;;;17.10;96.70;;;;;;4967484;28;20037;-80
2022/05/20 00:16:35;;;;;;;23.65;20.52;;;17.10;96.60;;;;;;4985819;28;20080;-80
2022/05/20 00:19:04;;;;;;;26.08;22.15;;;16.90;97.70;;;;;;4980503;28;20030;-80
2022/05/20 00:21:30;;;;;;;24.80;20.00;;;16.80;97.30;;;;;;4978853;28;20058;-80
2022/05/20 00:23:57;;;;;;;19.33;16.38;;;16.90;97.00;;;;;;4982994;28;20033;-80
2022/05/20 00:26:23;;;;;;;28.92;21.08;;;16.70;99.90;;;;;;4986270;28;20505;-80
2022/05/20 00:28:48;;;;;;;27.30;20.98;;;16.70;98.40;;;;;;4993356;28;20034;-80
2022/05/20 00:31:14;;;;;;;26.60;20.70;;;16.60;98.30;;;;;;4983904;28;20033;-79
2022/05/20 00:33:40;;;;;;;20.73;17.15;;;16.50;98.80;;;;;;4978750;28;20030;-80
2022/05/20 00:36:05;;;;;;;25.00;20.38;;;16.50;98.80;;;;;;4970409;28;20026;-80
2022/05/20 00:38:31;;;;;;;26.42;21.05;;;16.40;99.90;;;;;;4995311;28;20113;-80
2022/05/20 00:41:00;;;;;;;24.52;21.05;;;16.50;98.70;;;;;;4963773;28;20104;-80
2022/05/20 00:43:26;;;;;;;25.85;20.63;;;16.50;99.50;;;;;;4983539;28;20117;-79
2022/05/20 00:45:52;;;;;;;22.40;13.05;;;16.40;98.90;;;;;;5010799;28;20121;-80
2022/05/20 00:48:18;;;;;;;20.77;16.15;;;16.40;98.70;;;;;;4980112;28;20638;-80
2022/05/20 00:50:46;;;;;;;23.70;20.38;;;16.40;98.40;;;;;;4979417;28;20109;-80
2022/05/20 00:53:12;;;;;;;12.88;10.30;;;16.30;98.80;;;;;;4980132;28;20031;-80
2022/05/20 00:55:38;;;;;;;11.70;10.10;;;16.30;99.10;;;;;;4984418;28;20057;-80
2022/05/20 00:58:07;;;;;;;14.55;11.77;;;16.30;99.10;;;;;;4969109;28;20465;-80
2022/05/20 01:00:34;;;;;;;14.10;9.95;;;16.30;99.50;;;;;;4985027;28;20022;-80
2022/05/20 01:03:03;;;;;;;12.93;9.85;;;16.20;99.20;;;;;;4984230;28;20482;-80
2022/05/20 01:05:29;;;;;;;15.25;13.35;;;16.20;99.30;;;;;;4981665;28;20030;-80
2022/05/20 01:07:55;;;;;;;12.27;10.63;;;16.10;99.00;;;;;;4994987;28;20044;-79
2022/05/20 01:10:20;;;;;;;14.57;11.02;;;16.10;99.80;;;;;;4967641;28;20038;-80
2022/05/20 01:12:48;;;;;;;10.43;9.07;;;16.20;99.90;;;;;;4966517;28;20034;-80
2022/05/20 01:15:13;;;;;;;13.70;10.63;;;16.40;99.90;;;;;;4964423;28;20572;-80
2022/05/20 01:17:39;;;;;;;16.13;13.27;;;16.40;99.90;;;;;;4984188;28;20136;-79
2022/05/20 01:20:10;;;;;;;15.73;13.70;;;16.20;99.90;;;;;;4984553;28;20053;-81
2022/05/20 01:22:48;;;;;;;18.73;16.02;;;16.20;99.90;;;;;;4985394;28;20042;-80
2022/05/20 01:25:13;;;;;;;25.55;19.58;;;16.10;99.90;;;;;;4991768;28;20448;-80
2022/05/20 01:27:46;;;;;;;30.60;22.25;;;16.00;99.90;;;;;;4984466;28;20026;-80
2022/05/20 01:30:14;;;;;;;16.63;12.65;;;16.00;99.90;;;;;;4994790;28;20053;-80
2022/05/20 01:32:40;;;;;;;14.90;12.38;;;16.10;99.90;;;;;;4979630;28;20026;-82
2022/05/20 01:35:07;;;;;;;26.70;21.88;;;16.10;99.90;;;;;;4977862;28;20083;-80
2022/05/20 01:37:33;;;;;;;27.08;20.08;;;16.10;99.90;;;;;;4962566;28;20034;-80
2022/05/20 01:39:59;;;;;;;13.05;11.68;;;16.10;99.90;;;;;;4968577;28;20034;-80
2022/05/20 01:42:36;;;;;;;13.43;11.32;;;16.10;99.90;;;;;;4995317;28;20125;-81
2022/05/20 01:45:16;;;;;;;20.48;15.70;;;16.20;99.90;;;;;;4977360;28;20029;-81
2022/05/20 01:47:46;;;;;;;15.18;13.32;;;16.30;99.90;;;;;;4971491;28;20038;-81
2022/05/20 01:50:19;;;;;;;23.13;18.00;;;16.20;99.90;;;;;;4983511;28;20035;-80
2022/05/20 01:52:59;;;;;;;16.15;14.45;;;16.20;99.90;;;;;;4996046;28;20494;-80
2022/05/20 01:55:38;;;;;;;15.45;12.30;;;16.20;99.90;;;;;;4984388;28;20129;-80
2022/05/20 01:58:05;;;;;;;15.27;12.95;;;16.10;99.90;;;;;;4979013;28;20189;-80
2022/05/20 02:00:33;;;;;;;14.35;12.85;;;16.10;99.90;;;;;;4996119;28;20544;-80
2022/05/20 02:03:11;;;;;;;17.75;13.50;;;16.10;99.90;;;;;;4960573;28;20113;-80
2022/05/20 02:05:44;;;;;;;15.85;12.95;;;16.10;99.90;;;;;;4978208;28;20034;-80
2022/05/20 02:08:46;;;;;;;29.95;24.60;;;16.10;99.90;;;;;;4983369;28;20092;-81
2022/05/20 02:11:16;;;;;;;22.20;18.23;;;16.00;99.90;;;;;;4993995;28;20036;-80
2022/05/20 02:13:44;;;;;;;20.50;15.88;;;16.00;99.90;;;;;;4997120;28;20258;-80
2022/05/20 02:16:16;;;;;;;16.13;12.48;;;16.10;99.90;;;;;;4967646;28;20045;-80
2022/05/20 02:18:51;;;;;;;18.88;13.95;;;16.00;99.90;;;;;;4979071;28;20129;-80
2022/05/20 02:21:18;;;;;;;17.60;14.70;;;15.90;99.90;;;;;;4964145;28;20026;-80
2022/05/20 02:23:46;;;;;;;27.83;22.50;;;16.00;99.90;;;;;;4995212;28;20030;-80
2022/05/20 02:26:15;;;;;;;33.63;25.05;;;15.90;99.90;;;;;;4981919;28;20279;-81
2022/05/20 02:28:43;;;;;;;35.58;26.27;;;15.80;99.90;;;;;;4993025;28;20032;-80
2022/05/20 02:31:11;;;;;;;36.88;25.58;;;15.70;99.90;;;;;;4983358;28;20096;-80
2022/05/20 02:33:37;;;;;;;35.75;26.75;;;15.70;99.90;;;;;;4994481;28;20037;-80
2022/05/20 02:36:08;;;;;;;37.63;26.38;;;15.60;99.90;;;;;;4976836;28;20022;-80
2022/05/20 02:38:34;;;;;;;35.50;25.90;;;15.40;99.90;;;;;;4963188;28;20150;-80
2022/05/20 02:40:59;;;;;;;30.23;23.08;;;15.40;99.90;;;;;;4991516;28;20058;-80
2022/05/20 02:43:25;;;;;;;31.60;24.55;;;15.50;99.90;;;;;;4977063;28;20032;-80
2022/05/20 02:45:51;;;;;;;33.60;27.13;;;15.50;99.90;;;;;;4976928;28;20038;-80
2022/05/20 02:48:18;;;;;;;41.90;30.20;;;15.30;99.90;;;;;;4977970;28;20255;-80
2022/05/20 02:50:44;;;;;;;33.78;25.17;;;15.40;99.90;;;;;;4973869;28;20038;-80
2022/05/20 02:53:09;;;;;;;45.78;32.95;;;15.40;99.90;;;;;;4964481;28;20457;-80
2022/05/20 02:55:35;;;;;;;37.65;29.05;;;15.40;99.90;;;;;;4982105;28;20030;-80
2022/05/20 02:58:00;;;;;;;40.65;32.13;;;15.30;99.90;;;;;;4962107;28;20026;-80
2022/05/20 03:05:55;;;;;;;43.35;31.55;;;14.90;99.90;;;;;;4990613;28;20157;-80
2022/05/20 03:08:20;;;;;;;22.05;17.45;;;14.90;99.90;;;;;;4980112;28;20132;-80
2022/05/20 03:10:46;;;;;;;17.88;15.57;;;15.10;99.90;;;;;;4976141;28;20181;-80
2022/05/20 03:13:12;;;;;;;44.70;28.88;;;15.10;99.90;;;;;;4991711;28;20494;-80
2022/05/20 03:15:39;;;;;;;48.13;30.50;;;15.00;99.90;;;;;;4959835;28;20030;-80
2022/05/20 03:18:05;;;;;;;36.45;27.98;;;15.00;99.90;;;;;;4976581;28;20048;-80
2022/05/20 03:20:32;;;;;;;25.77;21.67;;;15.00;99.90;;;;;;4985519;28;20037;-80
2022/05/20 03:22:57;;;;;;;28.65;20.55;;;14.90;99.90;;;;;;4967222;28;20034;-80
2022/05/20 03:25:23;;;;;;;21.38;15.38;;;15.00;99.90;;;;;;4982863;28;20450;-80
2022/05/20 03:27:48;;;;;;;20.13;15.90;;;15.00;99.90;;;;;;4986936;28;20121;-80
2022/05/20 03:30:15;;;;;;;33.13;26.05;;;14.90;99.90;;;;;;4992514;28;20026;-80
2022/05/20 03:32:40;;;;;;;35.05;26.85;;;14.80;99.90;;;;;;4985403;28;20066;-81
2022/05/20 03:35:06;;;;;;;37.63;27.08;;;14.80;99.90;;;;;;4998277;28;20034;-81
2022/05/20 03:37:32;;;;;;;39.88;26.30;;;14.70;99.90;;;;;;4982901;28;20495;-80
2022/05/20 03:39:57;;;;;;;36.40;27.90;;;14.70;99.90;;;;;;4963914;28;20049;-81
2022/05/20 03:42:23;;;;;;;44.30;31.02;;;14.60;99.90;;;;;;4981666;28;20041;-81
2022/05/20 03:44:49;;;;;;;38.58;29.73;;;14.50;99.90;;;;;;4982268;28;20423;-81
2022/05/20 03:47:15;;;;;;;48.80;32.80;;;14.50;99.90;;;;;;4997413;28;20068;-80
2022/05/20 03:49:41;;;;;;;50.97;35.33;;;14.50;99.90;;;;;;4982015;28;20021;-81
2022/05/20 03:52:06;;;;;;;46.63;33.15;;;14.40;99.90;;;;;;4979338;28;20038;-81
2022/05/20 03:54:32;;;;;;;57.30;40.15;;;14.40;99.90;;;;;;4976385;28;20080;-81
2022/05/20 03:56:59;;;;;;;52.50;36.17;;;14.50;99.90;;;;;;4971544;28;20081;-82
2022/05/20 03:59:25;;;;;;;18.92;15.63;;;14.60;99.90;;;;;;4981519;28;20036;-80
2022/05/20 04:01:57;;;;;;;23.40;18.27;;;14.60;99.90;;;;;;4964675;28;20118;-80
2022/05/20 04:04:25;;;;;;;25.23;19.13;;;14.70;99.90;;;;;;4983668;28;20061;-80
2022/05/20 04:06:51;;;;;;;39.63;30.20;;;14.80;99.90;;;;;;4993314;28;20459;-81
2022/05/20 04:09:16;;;;;;;44.67;33.65;;;14.80;99.90;;;;;;4991845;28;20027;-81
2022/05/20 04:11:42;;;;;;;47.42;33.40;;;14.80;99.90;;;;;;4997217;28;20148;-81
2022/05/20 04:14:08;;;;;;;31.02;23.58;;;14.90;99.90;;;;;;4967494;28;24299;-82
2022/05/20 04:16:33;;;;;;;44.60;33.70;;;14.90;99.90;;;;;;4984802;28;20045;-82
2022/05/20 04:18:59;;;;;;;51.38;34.80;;;14.90;99.90;;;;;;4978628;28;20030;-82
2022/05/20 04:21:24;;;;;;;52.00;36.50;;;14.90;99.90;;;;;;4979945;28;20026;-82
2022/05/20 04:23:50;;;;;;;53.45;38.80;;;14.90;99.90;;;;;;4964538;28;20052;-81
2022/05/20 04:26:16;;;;;;;52.35;38.00;;;14.80;99.90;;;;;;4968698;28;20026;-82
2022/05/20 04:28:41;;;;;;;46.00;34.50;;;15.00;99.90;;;;;;4998271;28;20030;-82
2022/05/20 04:31:08;;;;;;;52.08;34.55;;;15.00;99.90;;;;;;4984959;28;20057;-81
2022/05/20 04:33:34;;;;;;;49.65;34.30;;;15.00;99.90;;;;;;4979743;28;20375;-82
2022/05/20 04:35:59;;;;;;;52.17;36.17;;;15.20;99.90;;;;;;4983736;28;20088;-82
2022/05/20 04:38:25;;;;;;;39.90;27.33;;;15.20;99.90;;;;;;4998146;28;20550;-82
2022/05/20 04:49:10;;;;;;;27.35;20.10;;;15.80;99.90;;;;;;4996018;28;20076;-82
2022/05/20 04:51:37;;;;;;;26.63;19.38;;;15.90;99.90;;;;;;4967035;28;20074;-80
2022/05/20 04:56:47;;;;;;;40.95;30.85;;;15.80;99.90;;;;;;4993335;28;20046;-80
2022/05/20 04:59:13;;;;;;;33.45;27.00;;;15.80;99.90;;;;;;4995008;28;20026;-80
2022/05/20 05:01:39;;;;;;;52.88;36.97;;;15.90;99.90;;;;;;4983770;28;20426;-80
2022/05/20 05:04:06;;;;;;;50.70;37.50;;;15.90;99.90;;;;;;4983398;28;20023;-81
2022/05/20 05:06:31;;;;;;;53.08;37.75;;;16.00;99.90;;;;;;4981158;28;20446;-81
2022/05/20 05:08:57;;;;;;;52.53;36.10;;;16.00;99.90;;;;;;4974346;28;20136;-81
2022/05/20 05:11:22;;;;;;;50.25;37.55;;;16.00;99.90;;;;;;4976366;28;20029;-80
2022/05/20 05:13:48;;;;;;;57.13;37.65;;;16.10;99.90;;;;;;4985187;28;20046;-80
2022/05/20 05:16:13;;;;;;;57.03;38.63;;;16.00;99.90;;;;;;4970929;28;20033;-80
2022/05/20 05:18:39;;;;;;;56.63;36.45;;;16.00;99.90;;;;;;4976973;28;20056;-80
2022/05/20 05:21:04;;;;;;;34.70;27.15;;;16.20;99.90;;;;;;4979694;28;20657;-80
2022/05/20 05:23:31;;;;;;;51.78;35.90;;;16.20;99.90;;;;;;4992927;28;20034;-80
2022/05/20 05:25:57;;;;;;;54.15;38.13;;;16.30;99.90;;;;;;4995716;28;20529;-80
2022/05/20 05:28:22;;;;;;;51.90;36.72;;;16.40;99.90;;;;;;4988830;28;20033;-80
2022/05/20 05:30:49;;;;;;;50.55;36.47;;;16.50;99.90;;;;;;4981661;28;20326;-80
2022/05/20 05:33:15;;;;;;;49.72;36.03;;;16.60;99.90;;;;;;4994325;28;20092;-80
2022/05/20 05:35:40;;;;;;;55.33;35.85;;;16.70;99.90;;;;;;4989599;28;20478;-80
2022/05/20 05:38:06;;;;;;;49.17;34.22;;;16.80;99.90;;;;;;4988404;28;20022;-82
2022/05/20 05:40:32;;;;;;;46.17;32.35;;;16.90;99.90;;;;;;4987060;28;20031;-80
2022/05/20 05:42:59;;;;;;;50.97;34.95;;;17.00;99.90;;;;;;4989303;28;21360;-80
2022/05/20 05:45:25;;;;;;;44.05;33.78;;;17.20;99.90;;;;;;4977264;28;20030;-80
2022/05/20 05:47:56;;;;;;;47.67;35.58;;;17.40;99.90;;;;;;4994190;28;20042;-80
2022/05/20 05:50:22;;;;;;;50.35;35.88;;;17.60;99.90;;;;;;4994043;28;20025;-80
2022/05/20 05:53:10;;;;;;;53.80;33.83;;;17.80;99.90;;;;;;4980610;28;20465;-80
2022/05/20 05:55:35;;;;;;;44.58;31.30;;;18.00;99.90;;;;;;4980654;28;20039;-80
2022/05/20 05:58:01;;;;;;;38.22;28.25;;;18.20;99.90;;;;;;4981527;28;20040;-80
2022/05/20 06:00:26;;;;;;;33.88;25.52;;;18.40;99.90;;;;;;4977887;28;20034;-80
2022/05/20 06:02:53;;;;;;;35.65;27.13;;;18.60;99.90;;;;;;4993234;28;20049;-80
2022/05/20 06:05:18;;;;;;;32.35;22.85;;;18.80;99.90;;;;;;4981645;28;20044;-80
2022/05/20 06:07:44;;;;;;;34.17;25.20;;;19.20;99.90;;;;;;4965700;28;20042;-81
2022/05/20 06:10:10;;;;;;;25.55;18.88;;;19.10;99.90;;;;;;4967142;28;20478;-80
2022/05/20 06:12:36;;;;;;;29.58;22.95;;;19.50;99.90;;;;;;4969649;28;20089;-80
2022/05/20 06:15:06;;;;;;;29.48;23.25;;;19.60;99.90;;;;;;4967448;28;20089;-81
2022/05/20 06:17:31;;;;;;;39.05;24.67;;;19.90;99.90;;;;;;4964703;28;20033;-81
2022/05/20 06:19:57;;;;;;;33.40;22.92;;;20.10;99.90;;;;;;4987799;28;20036;-80
2022/05/20 06:22:22;;;;;;;31.33;22.60;;;20.20;99.90;;;;;;4981632;28;20041;-80
2022/05/20 06:24:48;;;;;;;31.25;22.95;;;20.50;99.90;;;;;;4985612;28;20031;-81
2022/05/20 06:27:13;;;;;;;27.60;19.30;;;20.70;99.90;;;;;;4986618;28;20034;-81
2022/05/20 06:29:39;;;;;;;22.55;15.20;;;20.90;99.90;;;;;;4996737;28;20022;-81
2022/05/20 06:32:05;;;;;;;18.83;13.32;;;21.10;99.90;;;;;;5002232;28;20030;-81
2022/05/20 06:39:48;;;;;;;21.15;14.02;;;21.20;99.90;;;;;;5004305;28;20099;-81
2022/05/20 06:40:10;;;;;;;10.73;8.10;;;21.60;99.90;;;;;;4985301;28;20498;-81
2022/05/20 06:42:36;;;;;;;12.63;8.18;;;21.90;99.90;;;;;;4987306;28;20077;-81
2022/05/20 06:45:02;;;;;;;11.70;6.50;;;22.10;99.90;;;;;;4992570;28;20134;-82
2022/05/20 06:47:27;;;;;;;11.05;6.45;;;22.40;99.90;;;;;;4982485;28;20098;-81
2022/05/20 06:49:53;;;;;;;9.80;7.32;;;22.50;99.90;;;;;;4988887;28;20026;-81
2022/05/20 06:52:18;;;;;;;12.75;7.55;;;22.70;99.90;;;;;;4995665;28;20397;-81
2022/05/20 06:54:44;;;;;;;10.40;7.60;;;22.70;99.90;;;;;;4988610;28;20048;-81
2022/05/20 06:57:09;;;;;;;8.48;6.28;;;22.80;99.90;;;;;;4991947;28;20370;-81
2022/05/20 06:59:36;;;;;;;10.30;7.85;;;22.90;99.90;;;;;;4992554;28;20503;-82
2022/05/20 07:02:01;;;;;;;12.38;8.43;;;23.00;99.90;;;;;;4989105;28;20034;-82
2022/05/20 07:04:31;;;;;;;14.48;9.63;;;23.30;99.90;;;;;;4987983;28;20413;-82
2022/05/20 07:06:57;;;;;;;15.32;10.82;;;23.50;99.90;;;;;;4970765;28;20103;-82
2022/05/20 07:09:23;;;;;;;14.65;10.52;;;23.60;99.90;;;;;;4982710;28;20034;-82
2022/05/20 07:11:48;;;;;;;11.25;8.25;;;23.80;99.90;;;;;;4983170;28;20110;-83
2022/05/20 07:14:14;;;;;;;17.23;12.07;;;23.90;99.90;;;;;;4983117;28;20441;-82
2022/05/20 07:16:40;;;;;;;14.68;11.25;;;24.10;99.90;;;;;;4998175;28;20105;-82
2022/05/20 07:19:06;;;;;;;17.58;11.00;;;24.20;99.90;;;;;;4970708;28;20056;-82
2022/05/20 07:21:31;;;;;;;13.00;11.35;;;24.40;99.90;;;;;;4983435;28;20034;-83
2022/05/20 07:23:57;;;;;;;16.38;13.13;;;24.50;99.90;;;;;;4988420;28;20137;-83
2022/05/20 07:26:22;;;;;;;17.20;13.10;;;24.70;99.90;;;;;;4987417;28;20038;-82
2022/05/20 07:28:48;;;;;;;17.73;13.77;;;24.90;99.60;;;;;;4985455;28;20525;-82
2022/05/20 07:31:14;;;;;;;15.23;10.50;;;25.10;99.00;;;;;;4971919;28;20076;-82
2022/05/20 07:33:39;;;;;;;22.23;14.80;;;25.10;99.80;;;;;;4973609;28;20650;-83
2022/05/20 07:36:06;;;;;;;11.68;7.45;;;25.40;97.30;;;;;;4984347;28;20042;-83
2022/05/20 07:38:31;;;;;;;24.02;13.80;;;25.40;97.30;;;;;;4995842;28;20050;-82
2022/05/20 07:40:57;;;;;;;16.00;11.90;;;25.60;98.60;;;;;;4986811;28;20035;-83
2022/05/20 07:43:24;;;;;;;22.40;15.27;;;25.70;98.40;;;;;;4985261;28;20030;-82
2022/05/20 07:45:50;;;;;;;20.30;14.43;;;25.80;98.20;;;;;;4997616;28;20137;-83
2022/05/20 07:48:15;;;;;;;23.25;15.57;;;26.00;97.50;;;;;;4986928;28;20474;-82
2022/05/20 07:50:43;;;;;;;23.33;17.83;;;26.10;97.30;;;;;;5014697;28;20290;-82
2022/05/20 07:53:20;;;;;;;24.40;15.55;;;26.30;96.90;;;;;;4993040;28;20042;-82
2022/05/20 07:55:53;;;;;;;18.13;12.95;;;26.40;96.90;;;;;;4998765;28;20131;-83
2022/05/20 07:58:19;;;;;;;23.27;17.40;;;26.40;96.60;;;;;;4997550;28;20466;-83
2022/05/20 08:00:45;;;;;;;14.38;10.10;;;26.50;96.20;;;;;;4972140;28;20035;-82
2022/05/20 08:03:13;;;;;;;23.83;19.08;;;26.70;94.20;;;;;;4984832;28;20081;-83
2022/05/20 08:05:39;;;;;;;21.02;16.48;;;27.10;95.20;;;;;;4977081;28;20421;-83
2022/05/20 08:08:05;;;;;;;18.80;13.20;;;27.00;95.90;;;;;;4972090;28;20030;-83
2022/05/20 08:10:33;;;;;;;18.73;14.93;;;27.60;94.80;;;;;;4993486;28;20085;-83
2022/05/20 08:12:59;;;;;;;31.52;24.52;;;27.70;94.80;;;;;;4996501;28;20077;-83
2022/05/20 08:15:25;;;;;;;27.48;21.35;;;28.00;93.80;;;;;;4984315;28;20073;-84
2022/05/20 08:17:50;;;;;;;20.27;15.55;;;28.10;93.10;;;;;;4996938;28;20069;-83
2022/05/20 08:20:28;;;;;;;32.92;24.83;;;28.10;93.90;;;;;;4986499;28;20057;-84
2022/05/20 08:22:54;;;;;;;24.75;19.45;;;28.30;92.80;;;;;;4997717;28;20042;-84
2022/05/20 08:25:21;;;;;;;24.10;17.08;;;28.30;92.20;;;;;;4979928;28;20140;-84
2022/05/20 08:27:46;;;;;;;36.90;26.52;;;28.50;92.80;;;;;;4986518;28;20048;-85
2022/05/20 08:30:20;;;;;;;33.25;26.92;;;28.50;92.40;;;;;;4986194;28;20113;-83
2022/05/20 08:32:46;;;;;;;38.67;24.67;;;28.60;91.40;;;;;;4988374;28;20049;-84
2022/05/20 08:35:12;;;;;;;32.63;24.08;;;28.60;91.40;;;;;;4972217;28;20191;-84
2022/05/20 08:37:42;;;;;;;32.33;21.83;;;28.70;91.30;;;;;;4997866;28;20045;-85
2022/05/20 08:40:11;;;;;;;25.00;18.45;;;28.90;91.40;;;;;;4968671;28;20347;-84
2022/05/20 08:42:37;;;;;;;30.98;24.63;;;29.00;91.50;;;;;;4984853;28;20490;-84
2022/05/20 08:45:03;;;;;;;31.40;22.90;;;29.30;90.80;;;;;;4968976;28;20026;-85
2022/05/20 08:47:46;;;;;;;31.90;24.90;;;29.50;91.10;;;;;;4974626;28;20405;-84
2022/05/20 08:50:14;;;;;;;30.90;23.42;;;29.80;87.50;;;;;;4980285;28;20073;-85
2022/05/20 08:52:41;;;;;;;29.65;22.30;;;29.70;86.70;;;;;;4983259;28;20034;-85
2022/05/20 08:55:07;;;;;;;32.47;24.27;;;29.80;86.30;;;;;;4971566;28;20057;-85
2022/05/20 08:57:33;;;;;;;26.20;19.67;;;29.80;83.30;;;;;;4983629;28;20030;-86
2022/05/20 09:00:00;;;;;;;27.35;20.58;;;29.80;85.40;;;;;;4971463;28;20061;-85
2022/05/20 09:02:26;;;;;;;27.50;20.23;;;29.70;85.00;;;;;;4996475;28;20318;-85
2022/05/20 09:04:52;;;;;;;26.45;19.42;;;29.70;83.70;;;;;;4984111;28;20032;-84
2022/05/20 09:07:19;;;;;;;23.33;16.55;;;29.60;83.50;;;;;;4980558;28;20030;-85
2022/05/20 09:09:55;;;;;;;25.35;18.00;;;29.70;83.00;;;;;;4995567;28;20038;-85
2022/05/20 09:12:39;;;;;;;20.17;14.18;;;29.70;82.10;;;;;;4996086;28;20390;-87
2022/05/20 09:17:51;;;;;;;24.60;16.92;;;29.80;83.50;;;;;;4994930;28;20069;-86
2022/05/20 09:20:18;;;;;;;24.77;18.05;;;29.90;82.20;;;;;;4973505;28;20040;-86
2022/05/20 09:23:04;;;;;;;25.70;18.45;;;30.00;80.90;;;;;;4985296;28;20446;-86
2022/05/20 09:25:32;;;;;;;22.38;16.90;;;30.20;81.30;;;;;;4986548;28;20035;-86
2022/05/20 09:28:33;;;;;;;20.23;14.27;;;30.30;81.10;;;;;;4966931;28;20364;-87
2022/05/20 09:31:13;;;;;;;16.73;11.57;;;30.50;82.40;;;;;;4982152;28;20056;-86
2022/05/20 09:33:38;;;;;;;12.50;9.98;;;30.70;81.80;;;;;;4986599;28;20037;-85
2022/05/20 09:36:04;;;;;;;27.15;20.75;;;30.80;80.80;;;;;;4979471;28;20030;-86
2022/05/20 09:38:34;;;;;;;26.02;20.83;;;30.90;78.80;;;;;;4983444;28;20555;-86
2022/05/20 09:41:08;;;;;;;25.50;19.08;;;31.10;76.10;;;;;;5001672;28;20029;-87
2022/05/20 09:43:37;;;;;;;28.00;20.17;;;31.20;75.90;;;;;;4965523;28;20034;-85
2022/05/20 09:46:04;;;;;;;28.05;19.58;;;31.30;75.10;;;;;;4985765;28;20041;-86
2022/05/20 09:48:51;;;;;;;22.38;17.92;;;31.50;75.50;;;;;;4986006;28;20108;-87
2022/05/20 09:51:21;;;;;;;14.30;10.85;;;31.50;75.70;;;;;;4968947;28;20045;-86
2022/05/20 09:54:20;;;;;;;22.85;17.13;;;31.50;76.90;;;;;;4995062;28;20457;-86
2022/05/20 09:56:56;;;;;;;24.00;16.33;;;31.50;75.50;;;;;;4992497;28;20514;-87
2022/05/20 09:59:27;;;;;;;21.35;18.15;;;31.90;76.30;;;;;;4994288;28;20412;-86
2022/05/20 10:02:15;;;;;;;21.35;17.02;;;32.00;74.70;;;;;;4967087;28;20422;-86
2022/05/20 10:04:44;;;;;;;28.67;19.45;;;32.20;74.50;;;;;;4967163;28;20030;-85
2022/05/20 10:07:13;;;;;;;24.65;18.55;;;32.30;73.10;;;;;;4993799;28;20038;-85
2022/05/20 10:10:00;;;;;;;23.63;14.88;;;32.40;70.90;;;;;;4992575;28;20740;-85
2022/05/20 10:12:29;;;;;;;23.63;16.85;;;32.40;70.50;;;;;;4969848;28;20033;-85
2022/05/20 10:15:01;;;;;;;16.42;12.02;;;32.40;70.90;;;;;;4985564;28;20034;-84
2022/05/20 10:17:53;;;;;;;25.35;18.45;;;32.30;71.10;;;;;;4996870;28;20042;-84
2022/05/20 10:20:40;;;;;;;23.40;14.38;;;32.30;70.20;;;;;;5010225;28;20533;-84
2022/05/20 10:23:23;;;;;;;16.75;11.20;;;32.30;71.20;;;;;;4994421;28;20450;-83
2022/05/20 10:26:12;;;;;;;20.00;14.00;;;32.30;71.80;;;;;;4994640;28;20490;-83
2022/05/20 10:34:53;;;;;;;25.83;19.50;;;32.70;71.60;;;;;;4997793;28;20048;-82
2022/05/20 10:37:31;;;;;;;15.52;9.60;;;33.10;69.40;;;;;;4970840;28;20041;-81
2022/05/20 10:40:18;;;;;;;14.40;9.85;;;33.30;70.20;;;;;;5002130;28;20038;-80
2022/05/20 10:42:59;;;;;;;14.90;9.98;;;33.10;68.60;;;;;;4980919;28;20989;-80
2022/05/20 10:48:36;;;;;;;27.67;20.55;;;33.60;70.30;;;;;;4995176;28;20406;-80
2022/05/20 10:51:21;;;;;;;18.50;13.88;;;34.10;67.60;;;;;;4999575;28;20096;-80
2022/05/20 10:54:15;;;;;;;26.17;19.23;;;34.20;67.30;;;;;;4651290;28;9999952;-80
2022/05/20 10:56:59;;;;;;;27.02;21.40;;;34.30;66.60;;;;;;4988448;28;20034;-79
2022/05/20 10:59:46;;;;;;;24.65;19.30;;;34.50;65.60;;;;;;4978526;28;20057;-79
2022/05/20 11:02:28;;;;;;;23.30;17.02;;;34.40;65.60;;;;;;4996283;28;20057;-80
2022/05/20 11:05:13;;;;;;;27.83;19.90;;;34.40;66.30;;;;;;4995966;28;20034;-79
2022/05/20 11:07:54;;;;;;;25.10;21.67;;;34.20;63.90;;;;;;4997271;28;20080;-80
2022/05/20 11:10:46;;;;;;;26.17;18.67;;;34.00;64.50;;;;;;4981851;28;20038;-79
2022/05/20 11:13:20;;;;;;;28.50;20.50;;;34.00;64.50;;;;;;4992525;28;20046;-79
2022/05/20 11:16:00;;;;;;;20.77;13.93;;;34.00;65.30;;;;;;4994745;28;20391;-79
2022/05/20 11:18:50;;;;;;;20.17;14.75;;;33.90;64.00;;;;;;4977968;28;20069;-79
2022/05/20 11:21:48;;;;;;;23.63;17.05;;;33.70;66.30;;;;;;4998892;28;20030;-79
2022/05/20 11:24:24;;;;;;;17.70;12.30;;;33.80;66.30;;;;;;4987794;28;20110;-79
2022/05/20 11:26:57;;;;;;;18.40;14.07;;;33.90;66.80;;;;;;4978755;28;20030;-79
2022/05/20 11:29:33;;;;;;;33.00;18.88;;;34.10;65.80;;;;;;4991303;28;20128;-79
2022/05/20 11:32:05;;;;;;;25.90;19.48;;;34.20;64.60;;;;;;4296862;28;10000518;-79
2022/05/20 11:35:01;;;;;;;22.63;16.92;;;34.30;65.10;;;;;;4975479;28;20118;-79
2022/05/20 11:37:50;;;;;;;15.93;12.15;;;34.40;64.70;;;;;;4994159;28;20026;-79
2022/05/20 11:40:30;;;;;;;19.92;16.05;;;34.40;66.20;;;;;;4978528;28;20045;-79
2022/05/20 11:43:10;;;;;;;14.27;12.48;;;34.50;65.10;;;;;;4993910;28;20054;-79
2022/05/20 11:45:52;;;;;;;18.67;15.48;;;34.60;65.20;;;;;;4985716;28;20033;-79
2022/05/20 11:48:54;;;;;;;23.05;17.17;;;34.80;64.40;;;;;;4994931;28;20406;-78
2022/05/20 11:51:26;;;;;;;19.83;16.88;;;34.90;64.10;;;;;;4997710;28;20037;-78
2022/05/20 11:54:02;;;;;;;20.40;16.95;;;35.00;64.00;;;;;;4993952;28;20045;-79
2022/05/20 11:56:39;;;;;;;19.75;15.70;;;35.00;64.10;;;;;;4978576;28;20560;-77
2022/05/20 11:59:24;;;;;;;22.25;17.88;;;34.90;64.80;;;;;;4983266;28;20041;-77
2022/05/20 12:01:50;;;;;;;;;;;34.90;63.10;;;;;;4991013;28;20053;-77
2022/05/20 12:04:17;;;;;;;22.00;18.92;;;34.70;63.00;;;;;;4992697;28;19914;-77
2022/05/20 12:07:06;;;;;;;21.75;18.33;;;34.70;63.50;;;;;;4967330;28;20129;-77
2022/05/20 12:09:32;;;;;;;21.02;18.85;;;34.80;64.70;;;;;;4965073;28;20030;-77
2022/05/20 12:12:18;;;;;;;22.33;18.17;;;35.00;64.80;;;;;;5008952;28;20049;-77
2022/05/20 12:15:06;;;;;;;22.90;18.48;;;35.10;64.20;;;;;;4993227;28;20521;-77
2022/05/20 12:17:33;;;;;;;18.65;16.23;;;35.20;63.30;;;;;;4995408;28;20054;-77
2022/05/20 12:25:41;;;;;;;19.65;17.58;;;35.20;63.40;;;;;;4978433;28;20041;-77
2022/05/20 12:28:09;;;;;;;15.43;13.75;;;35.20;62.60;;;;;;4995603;28;20414;-77
2022/05/20 12:30:43;;;;;;;13.38;10.70;;;35.00;64.50;;;;;;4974907;28;20089;-77
2022/05/20 12:33:26;;;;;;;21.30;16.52;;;35.00;64.50;;;;;;4970462;28;20086;-76
2022/05/20 12:36:22;;;;;;;11.40;10.25;;;34.80;62.60;;;;;;4990066;28;20089;-77
2022/05/20 12:38:47;;;;;;;;;;;34.60;63.10;;;;;;4963956;28;20077;-78
2022/05/20 12:41:36;;;;;;;14.25;12.75;;;34.50;63.50;;;;;;4994035;28;19967;-76
2022/05/20 12:44:17;;;;;;;11.55;10.40;;;34.30;63.50;;;;;;4980584;28;20456;-76
2022/05/20 12:47:04;;;;;;;17.48;14.88;;;34.10;64.90;;;;;;4990781;28;20117;-77
2022/05/20 12:49:48;;;;;;;17.58;13.10;;;33.90;64.40;;;;;;4992927;28;20228;-76
2022/05/20 12:52:18;;;;;;;11.93;9.15;;;33.60;64.40;;;;;;4992314;28;20064;-77
2022/05/20 12:55:17;;;;;;;16.92;10.93;;;33.40;65.40;;;;;;4977208;28;20100;-78
2022/05/20 12:57:54;;;;;;;18.15;14.50;;;33.20;65.50;;;;;;4986458;28;20030;-79
2022/05/20 13:00:32;;;;;;;18.15;14.25;;;32.80;66.80;;;;;;4976541;28;20589;-79
2022/05/20 13:03:26;;;;;;;18.70;16.38;;;32.40;67.90;;;;;;4989304;28;20522;-79
2022/05/20 13:06:01;;;;;;;16.33;14.05;;;31.90;70.30;;;;;;4971609;28;20278;-80
2022/05/20 13:08:30;;;;;;;;;;;31.40;72.60;;;;;;4995066;28;20057;-80
2022/05/20 13:11:10;;;;;;;14.68;12.05;;;30.80;74.50;;;;;;5008869;28;19917;-80
2022/05/20 13:13:36;;;;;;;13.63;12.02;;;30.30;73.60;;;;;;4971260;28;20057;-81
2022/05/20 13:16:03;;;;;;;11.80;10.60;;;29.90;73.40;;;;;;4985344;28;21857;-81
2022/05/20 13:18:37;;;;;;;12.52;10.98;;;29.50;74.10;;;;;;4978597;28;20058;-83
2022/05/20 13:21:07;;;;;;;12.38;9.73;;;29.20;76.90;;;;;;4995468;28;20038;-82
2022/05/20 13:23:35;;;;;;;13.52;10.48;;;29.10;85.60;;;;;;4998920;28;20046;-83